createdAt,value
2019-03-11T00:00:45.601Z,66.60
2019-03-11T00:03:16.569Z,67.00
2019-03-11T00:05:47.661Z,66.70
2019-03-11T00:08:18.517Z,67.00
2019-03-11T00:10:49.322Z,67.00
2019-03-11T00:13:20.125Z,66.90
2019-03-11T00:15:51.028Z,67.10
2019-03-11T00:18:22.024Z,67.40
2019-03-11T00:20:52.931Z,67.10
2019-03-11T00:23:23.939Z,67.20
2019-03-11T00:25:54.488Z,67.30
2019-03-11T00:28:25.487Z,67.50
2019-03-11T00:30:57.521Z,67.40
2019-03-11T00:33:28.313Z,67.50
2019-03-11T00:35:59.022Z,67.50
2019-03-11T00:38:29.579Z,68.10
2019-03-11T00:41:00.323Z,67.50
2019-03-11T00:43:30.795Z,67.50
2019-03-11T00:46:01.740Z,67.20
2019-03-11T00:48:32.526Z,67.50
2019-03-11T00:51:03.374Z,67.70
2019-03-11T00:53:34.094Z,67.70
2019-03-11T00:56:04.634Z,67.80
2019-03-11T00:58:35.247Z,68.20
2019-03-11T01:01:06.019Z,68.00
2019-03-11T01:03:36.830Z,68.20
2019-03-11T01:06:07.671Z,68.40
2019-03-11T01:08:38.394Z,68.50
2019-03-11T01:11:09.115Z,68.30
2019-03-11T01:13:39.738Z,68.60
2019-03-11T01:16:10.448Z,68.70
2019-03-11T01:18:41.137Z,68.80
2019-03-11T01:21:11.995Z,68.70
2019-03-11T01:23:42.991Z,68.90
2019-03-11T01:26:13.630Z,68.90
2019-03-11T01:28:44.121Z,68.90
2019-03-11T01:31:14.842Z,69.00
2019-03-11T01:33:45.491Z,69.00
2019-03-11T01:36:16.290Z,69.00
2019-03-11T01:38:47.024Z,69.00
2019-03-11T01:41:17.967Z,69.10
2019-03-11T01:43:48.809Z,69.10
2019-03-11T01:46:19.562Z,69.20
2019-03-11T01:48:50.347Z,69.40
2019-03-11T01:51:21.008Z,69.20
2019-03-11T01:53:52.038Z,69.40
2019-03-11T01:56:22.865Z,69.90
2019-03-11T01:58:53.702Z,69.10
2019-03-11T02:01:24.688Z,69.20
2019-03-11T02:03:55.273Z,69.10
2019-03-11T02:06:26.229Z,69.20
2019-03-11T02:08:57.388Z,69.30
2019-03-11T02:11:28.547Z,69.60
2019-03-11T02:13:59.029Z,69.30
2019-03-11T02:16:31.431Z,69.50
2019-03-11T02:19:02.136Z,69.50
2019-03-11T02:21:34.511Z,69.40
2019-03-11T02:24:05.395Z,69.50
2019-03-11T02:26:36.406Z,69.40
2019-03-11T02:29:07.131Z,69.50
2019-03-11T02:31:38.050Z,69.40
2019-03-11T02:34:10.149Z,69.30
2019-03-11T02:36:41.505Z,69.30
2019-03-11T02:39:13.049Z,69.40
2019-03-11T02:41:45.088Z,69.40
2019-03-11T02:44:17.115Z,69.40
2019-03-11T02:46:49.039Z,69.50
2019-03-11T02:49:19.962Z,69.30
2019-03-11T02:51:50.811Z,69.40
2019-03-11T02:54:21.347Z,69.50
2019-03-11T02:56:51.883Z,69.50
2019-03-11T02:59:22.834Z,69.70
2019-03-11T03:02:18.612Z,69.50
2019-03-11T03:04:58.792Z,69.60
2019-03-11T03:07:29.971Z,69.50
2019-03-11T03:10:00.853Z,69.50
2019-03-11T03:12:31.751Z,69.80
2019-03-11T03:15:02.570Z,69.70
2019-03-11T03:17:33.624Z,69.50
2019-03-11T03:20:04.536Z,69.60
2019-03-11T03:22:37.321Z,69.70
2019-03-11T03:25:08.512Z,69.80
2019-03-11T03:27:39.497Z,69.90
2019-03-11T03:30:14.863Z,69.80
2019-03-11T03:32:45.751Z,69.80
2019-03-11T03:35:16.840Z,69.70
2019-03-11T03:37:47.661Z,69.90
2019-03-11T03:40:20.271Z,69.60
2019-03-11T03:42:50.863Z,69.90
2019-03-11T03:45:30.621Z,69.60
2019-03-11T03:48:01.794Z,69.60
2019-03-11T03:50:34.227Z,69.70
2019-03-11T03:53:05.282Z,69.60
2019-03-11T03:55:36.898Z,69.70
2019-03-11T03:58:07.970Z,69.50
2019-03-11T04:00:38.813Z,69.50
2019-03-11T04:03:09.686Z,70.00
2019-03-11T04:05:40.770Z,69.70
2019-03-11T04:08:11.619Z,69.80
2019-03-11T04:10:42.365Z,69.80
2019-03-11T04:13:13.219Z,69.90
2019-03-11T04:15:44.038Z,70.00
2019-03-11T04:18:14.944Z,70.20
2019-03-11T04:20:45.752Z,70.00
2019-03-11T04:23:16.558Z,70.00
2019-03-11T04:25:47.603Z,70.20
2019-03-11T04:28:20.095Z,70.10
2019-03-11T04:30:51.238Z,70.00
2019-03-11T04:33:23.618Z,70.20
2019-03-11T04:35:56.260Z,70.20
2019-03-11T04:38:26.958Z,70.20
2019-03-11T04:40:58.234Z,70.50
2019-03-11T04:43:29.019Z,70.40
2019-03-11T04:45:59.904Z,70.40
2019-03-11T04:48:30.759Z,71.00
2019-03-11T04:51:01.318Z,70.30
2019-03-11T04:53:31.974Z,70.40
2019-03-11T04:56:02.983Z,70.20
2019-03-11T04:58:33.798Z,70.10
2019-03-11T05:01:04.434Z,70.40
2019-03-11T05:03:35.478Z,70.20
2019-03-11T05:06:06.339Z,70.10
2019-03-11T05:08:37.834Z,70.20
2019-03-11T05:11:08.522Z,70.10
2019-03-11T05:13:39.207Z,70.10
2019-03-11T05:16:09.868Z,70.10
2019-03-11T05:18:40.596Z,70.20
2019-03-11T05:21:11.194Z,70.20
2019-03-11T05:23:42.192Z,70.00
2019-03-11T05:26:13.020Z,70.20
2019-03-11T05:28:43.646Z,69.80
2019-03-11T05:31:14.250Z,69.60
2019-03-11T05:33:45.530Z,69.40
2019-03-11T05:36:16.395Z,69.60
2019-03-11T05:38:47.327Z,69.80
2019-03-11T05:41:17.869Z,69.50
2019-03-11T05:43:48.396Z,69.60
2019-03-11T05:46:19.109Z,69.50
2019-03-11T05:48:49.923Z,69.50
2019-03-11T05:51:31.029Z,69.60
2019-03-11T05:53:53.576Z,69.40
2019-03-11T05:56:24.928Z,69.40
2019-03-11T05:58:56.911Z,69.50
2019-03-11T06:01:28.220Z,69.20
2019-03-11T06:03:59.199Z,69.10
2019-03-11T06:06:30.145Z,69.00
2019-03-11T06:09:01.017Z,68.80
2019-03-11T06:11:33.690Z,68.80
2019-03-11T06:14:04.755Z,68.50
2019-03-11T06:16:35.276Z,68.30
2019-03-11T06:19:06.181Z,68.40
2019-03-11T06:21:48.634Z,68.20
2019-03-11T06:24:19.501Z,68.20
2019-03-11T06:26:50.406Z,67.90
2019-03-11T06:29:30.023Z,68.00
2019-03-11T06:31:53.875Z,68.10
2019-03-11T06:34:24.744Z,67.60
2019-03-11T06:36:55.178Z,67.70
2019-03-11T06:39:25.767Z,67.80
2019-03-11T06:41:56.529Z,67.70
2019-03-11T06:44:27.491Z,67.70
2019-03-11T06:46:58.361Z,67.70
2019-03-11T06:49:29.193Z,67.40
2019-03-11T06:51:59.895Z,67.10
2019-03-11T06:54:30.785Z,66.70
2019-03-11T06:57:01.430Z,66.70
2019-03-11T06:59:32.290Z,66.90
2019-03-11T07:02:02.843Z,66.70
2019-03-11T07:04:33.612Z,67.70
2019-03-11T07:07:04.350Z,66.20
2019-03-11T07:09:34.953Z,65.90
2019-03-11T07:12:05.679Z,65.70
2019-03-11T07:14:36.762Z,65.30
2019-03-11T07:17:07.435Z,65.30
2019-03-11T07:19:37.883Z,64.70
2019-03-11T07:22:08.423Z,64.50
2019-03-11T07:24:38.963Z,64.60
2019-03-11T07:27:09.914Z,64.40
2019-03-11T07:29:41.058Z,64.50
2019-03-11T07:32:11.734Z,64.30
2019-03-11T07:34:42.612Z,64.50
2019-03-11T07:37:13.894Z,64.10
2019-03-11T07:39:44.476Z,63.90
2019-03-11T07:42:15.267Z,64.10
2019-03-11T07:44:46.283Z,64.30
2019-03-11T07:47:17.434Z,64.40
2019-03-11T07:49:48.087Z,64.30
2019-03-11T07:52:18.665Z,64.20
2019-03-11T07:54:49.682Z,64.10
2019-03-11T07:57:20.234Z,64.00
2019-03-11T07:59:51.098Z,63.90
2019-03-11T08:02:22.141Z,64.10
2019-03-11T08:04:53.020Z,63.90
2019-03-11T08:07:27.483Z,63.50
2019-03-11T08:09:57.911Z,63.30
2019-03-11T08:12:30.646Z,63.10
2019-03-11T08:15:01.754Z,63.40
2019-03-11T08:17:33.122Z,63.00
2019-03-11T08:20:04.643Z,62.90
2019-03-11T08:22:35.689Z,62.90
2019-03-11T08:25:07.127Z,62.90
2019-03-11T08:27:39.116Z,63.20
2019-03-11T08:30:11.002Z,62.60
2019-03-11T08:32:42.023Z,61.50
2019-03-11T08:35:12.741Z,57.80
2019-03-11T08:37:44.743Z,47.10
2019-03-11T08:40:15.526Z,37.90
2019-03-11T08:42:48.135Z,30.90
2019-03-11T08:45:19.286Z,27.80
2019-03-11T08:47:50.135Z,25.20
2019-03-11T08:50:20.950Z,23.60
2019-03-11T08:52:53.018Z,23.30
2019-03-11T08:55:23.718Z,23.20
2019-03-11T08:57:56.382Z,21.90
2019-03-11T09:00:26.981Z,20.80
2019-03-11T09:02:57.654Z,20.10
2019-03-11T09:05:28.715Z,19.50
2019-03-11T09:08:00.479Z,19.20
2019-03-11T09:10:33.150Z,19.00
2019-03-11T09:13:03.843Z,17.90
2019-03-11T09:15:34.599Z,17.90
2019-03-11T09:18:05.253Z,17.40
2019-03-11T09:20:35.888Z,17.00
2019-03-11T09:23:06.727Z,17.10
2019-03-11T09:25:37.875Z,16.60
2019-03-11T09:28:08.704Z,16.80
2019-03-11T09:30:39.436Z,17.40
2019-03-11T09:33:10.700Z,17.80
2019-03-11T09:35:41.265Z,18.90
2019-03-11T09:38:11.939Z,20.20
2019-03-11T09:40:42.423Z,21.00
2019-03-11T09:43:13.239Z,22.20
2019-03-11T09:45:45.571Z,21.10
2019-03-11T09:48:16.640Z,19.90
2019-03-11T09:50:47.482Z,19.10
2019-03-11T09:53:18.427Z,17.80
2019-03-11T09:55:49.127Z,17.40
2019-03-11T09:58:19.676Z,16.50
2019-03-11T10:00:50.434Z,15.90
2019-03-11T10:03:21.191Z,15.90
2019-03-11T10:05:52.826Z,14.90
2019-03-11T10:08:23.669Z,14.50
2019-03-11T10:10:54.155Z,14.60
2019-03-11T10:13:27.549Z,14.00
2019-03-11T10:15:57.542Z,14.50
2019-03-11T10:18:28.528Z,13.70
2019-03-11T10:20:59.361Z,14.00
2019-03-11T10:23:32.367Z,13.70
2019-03-11T10:26:03.275Z,13.90
2019-03-11T10:28:35.039Z,14.40
2019-03-11T10:31:06.491Z,14.20
2019-03-11T10:33:37.240Z,14.50
2019-03-11T10:36:10.398Z,14.00
2019-03-11T10:38:41.110Z,14.60
2019-03-11T10:41:11.970Z,14.10
2019-03-11T10:43:42.596Z,13.60
2019-03-11T10:46:13.590Z,13.40
2019-03-11T10:48:44.526Z,13.90
2019-03-11T10:51:15.242Z,14.10
2019-03-11T10:53:48.913Z,14.90
2019-03-11T10:56:19.783Z,14.40
2019-03-11T10:58:50.698Z,14.80
2019-03-11T11:01:21.607Z,14.40
2019-03-11T11:03:52.571Z,14.70
2019-03-11T11:06:23.449Z,14.80
2019-03-11T11:08:54.015Z,15.50
2019-03-11T11:11:25.152Z,15.60
2019-03-11T11:13:55.926Z,16.90
2019-03-11T11:16:26.791Z,17.20
2019-03-11T11:18:57.613Z,17.70
2019-03-11T11:21:28.420Z,18.10
2019-03-11T11:23:59.497Z,18.60
2019-03-11T11:26:30.035Z,18.20
2019-03-11T11:29:00.686Z,18.60
2019-03-11T11:31:31.709Z,18.90
2019-03-11T11:34:02.963Z,18.00
2019-03-11T11:36:34.770Z,18.30
2019-03-11T11:39:06.845Z,18.80
2019-03-11T11:41:39.135Z,18.30
2019-03-11T11:44:09.698Z,18.50
2019-03-11T11:46:40.727Z,18.30
2019-03-11T11:49:11.422Z,17.80
2019-03-11T11:51:41.998Z,18.80
2019-03-11T11:54:13.064Z,18.50
2019-03-11T11:56:43.820Z,18.10
2019-03-11T11:59:14.919Z,18.70
2019-03-11T12:01:46.176Z,18.90
2019-03-11T12:04:17.035Z,18.10
2019-03-11T12:06:47.822Z,18.40
2019-03-11T12:09:18.548Z,18.80
2019-03-11T12:11:49.422Z,19.30
2019-03-11T12:14:19.948Z,20.00
2019-03-11T12:16:50.648Z,19.30
2019-03-11T12:19:21.610Z,19.40
2019-03-11T12:21:52.928Z,20.10
2019-03-11T12:24:24.000Z,20.70
2019-03-11T12:26:54.747Z,21.00
2019-03-11T12:29:28.144Z,21.50
2019-03-11T12:32:00.099Z,21.50
2019-03-11T12:34:31.087Z,22.50
2019-03-11T12:37:01.944Z,22.70
2019-03-11T12:39:32.792Z,23.00
2019-03-11T12:42:03.517Z,23.40
2019-03-11T12:44:35.806Z,23.80
2019-03-11T12:47:06.769Z,24.10
2019-03-11T12:49:37.820Z,24.20
2019-03-11T12:52:08.803Z,24.50
2019-03-11T12:54:39.466Z,24.80
2019-03-11T12:57:11.395Z,24.70
2019-03-11T12:59:41.957Z,25.20
2019-03-11T13:02:12.930Z,25.70
2019-03-11T13:04:43.428Z,26.10
2019-03-11T13:07:14.082Z,26.00
2019-03-11T13:09:44.911Z,25.90
2019-03-11T13:12:17.792Z,25.70
2019-03-11T13:14:50.269Z,25.90
2019-03-11T13:17:20.846Z,26.20
2019-03-11T13:19:52.768Z,26.10
2019-03-11T13:22:23.581Z,26.20
2019-03-11T13:24:54.607Z,26.80
2019-03-11T13:27:25.593Z,27.00
2019-03-11T13:29:56.692Z,28.00
2019-03-11T13:32:27.726Z,28.40
2019-03-11T13:34:58.751Z,28.30
2019-03-11T13:37:29.796Z,28.30
2019-03-11T13:40:01.409Z,28.50
2019-03-11T13:42:33.652Z,28.90
2019-03-11T13:45:04.934Z,29.20
2019-03-11T13:47:36.167Z,29.60
2019-03-11T13:50:07.492Z,29.80
2019-03-11T13:52:38.602Z,30.30
2019-03-11T13:55:10.768Z,30.30
2019-03-11T13:57:41.467Z,30.70
2019-03-11T14:00:12.999Z,31.00
2019-03-11T14:02:43.634Z,31.30
2019-03-11T14:05:14.578Z,31.70
2019-03-11T14:07:45.461Z,31.70
2019-03-11T14:10:16.318Z,31.60
2019-03-11T14:12:47.206Z,32.20
2019-03-11T14:15:17.955Z,32.20
2019-03-11T14:17:48.782Z,32.30
2019-03-11T14:20:19.758Z,32.60
2019-03-11T14:22:50.435Z,32.60
2019-03-11T14:25:21.322Z,32.70
2019-03-11T14:27:51.921Z,32.90
2019-03-11T14:30:22.738Z,33.20
2019-03-11T14:32:53.826Z,33.30
2019-03-11T14:35:24.735Z,33.30
2019-03-11T14:37:57.371Z,33.50
2019-03-11T14:40:28.011Z,33.40
2019-03-11T14:42:58.732Z,33.70
2019-03-11T14:45:29.551Z,33.80
2019-03-11T14:48:00.346Z,34.20
2019-03-11T14:50:30.905Z,34.50
2019-03-11T14:53:01.754Z,34.40
2019-03-11T14:55:33.676Z,34.70
2019-03-11T14:58:04.638Z,34.80
2019-03-11T15:00:35.784Z,34.90
2019-03-11T15:03:06.699Z,34.90
2019-03-11T15:05:37.785Z,35.00
2019-03-11T15:08:08.286Z,35.10
2019-03-11T15:10:39.582Z,35.40
2019-03-11T15:13:10.350Z,34.80
2019-03-11T15:15:41.172Z,35.10
2019-03-11T15:18:11.947Z,35.50
2019-03-11T15:20:42.782Z,35.60
2019-03-11T15:23:20.361Z,35.70
2019-03-11T15:25:48.926Z,36.10
2019-03-11T15:28:19.977Z,35.80
2019-03-11T15:30:51.034Z,35.60
2019-03-11T15:33:21.695Z,35.60
2019-03-11T15:35:52.274Z,35.50
2019-03-11T15:38:23.650Z,35.40
2019-03-11T15:40:54.687Z,35.50
2019-03-11T15:43:25.421Z,36.00
2019-03-11T15:45:56.362Z,36.20
2019-03-11T15:48:27.746Z,35.70
2019-03-11T15:51:00.691Z,35.50
2019-03-11T15:53:31.655Z,35.70
2019-03-11T15:56:03.518Z,35.80
2019-03-11T15:58:35.527Z,36.20
2019-03-11T16:01:06.336Z,36.60
2019-03-11T16:03:37.242Z,36.90
2019-03-11T16:06:08.043Z,37.20
2019-03-11T16:08:38.811Z,37.60
2019-03-11T16:11:09.733Z,37.90
2019-03-11T16:13:40.625Z,38.10
2019-03-11T16:16:11.438Z,37.80
2019-03-11T16:18:42.535Z,37.70
2019-03-11T16:21:13.868Z,38.10
2019-03-11T16:23:45.076Z,38.00
2019-03-11T16:26:16.207Z,38.30
2019-03-11T16:28:48.294Z,38.20
2019-03-11T16:31:19.421Z,38.50
2019-03-11T16:33:51.338Z,38.60
2019-03-11T16:36:21.908Z,38.80
2019-03-11T16:38:52.686Z,38.90
2019-03-11T16:41:24.412Z,39.20
2019-03-11T16:43:55.146Z,39.40
2019-03-11T16:46:26.055Z,40.10
2019-03-11T16:48:58.134Z,39.60
2019-03-11T16:51:28.715Z,39.80
2019-03-11T16:53:59.651Z,40.10
2019-03-11T16:56:30.591Z,40.10
2019-03-11T16:59:01.090Z,40.40
2019-03-11T17:01:32.338Z,40.40
2019-03-11T17:04:03.370Z,40.70
2019-03-11T17:06:35.195Z,41.00
2019-03-11T17:09:07.690Z,41.10
2019-03-11T17:11:40.106Z,41.30
2019-03-11T17:14:11.327Z,41.50
2019-03-11T17:16:42.366Z,41.50
2019-03-11T17:19:13.121Z,41.70
2019-03-11T17:21:44.166Z,41.90
2019-03-11T17:24:15.006Z,42.10
2019-03-11T17:26:46.220Z,42.80
2019-03-11T17:29:17.116Z,42.50
2019-03-11T17:31:47.927Z,42.60
2019-03-11T17:34:20.489Z,42.80
2019-03-11T17:36:51.442Z,42.70
2019-03-11T17:39:22.574Z,43.10
2019-03-11T17:41:53.298Z,43.00
2019-03-11T17:44:24.270Z,43.30
2019-03-11T17:46:54.883Z,43.30
2019-03-11T17:49:25.656Z,43.40
2019-03-11T17:51:57.117Z,43.90
2019-03-11T17:54:29.513Z,43.80
2019-03-11T17:57:00.580Z,44.30
2019-03-11T17:59:31.327Z,44.50
2019-03-11T18:02:03.225Z,44.50
2019-03-11T18:04:34.622Z,44.50
2019-03-11T18:07:05.408Z,44.30
2019-03-11T18:09:36.409Z,44.60
2019-03-11T18:12:07.150Z,44.40
2019-03-11T18:14:38.182Z,44.70
2019-03-11T18:17:08.959Z,44.30
2019-03-11T18:19:39.928Z,44.10
2019-03-11T18:22:10.943Z,44.00
2019-03-11T18:24:42.527Z,44.30
2019-03-11T18:27:14.407Z,44.40
2019-03-11T18:29:47.136Z,44.40
2019-03-11T18:32:19.319Z,44.40
2019-03-11T18:34:52.084Z,44.10
2019-03-11T18:37:22.899Z,44.10
2019-03-11T18:39:53.490Z,44.10
2019-03-11T18:42:28.375Z,44.10
2019-03-11T18:44:59.782Z,44.00
2019-03-11T18:47:30.743Z,44.10
2019-03-11T18:50:01.958Z,44.00
2019-03-11T18:52:32.615Z,44.30
2019-03-11T18:55:03.294Z,44.20
2019-03-11T18:57:34.188Z,44.30
2019-03-11T19:00:06.156Z,44.00
2019-03-11T19:02:38.668Z,44.00
2019-03-11T19:05:10.673Z,44.10
2019-03-11T19:07:41.448Z,44.10
2019-03-11T19:10:12.611Z,44.40
2019-03-11T19:12:43.474Z,44.10
2019-03-11T19:15:15.236Z,44.00
2019-03-11T19:17:46.793Z,44.40
2019-03-11T19:20:18.558Z,43.90
2019-03-11T19:22:49.738Z,43.60
2019-03-11T19:25:20.457Z,43.70
2019-03-11T19:27:51.428Z,43.70
2019-03-11T19:30:22.157Z,43.70
2019-03-11T19:32:53.240Z,43.70
2019-03-11T19:35:24.985Z,43.80
2019-03-11T19:37:55.926Z,43.80
2019-03-11T19:40:26.763Z,43.80
2019-03-11T19:42:58.121Z,43.80
2019-03-11T19:45:29.400Z,43.90
2019-03-11T19:48:00.033Z,44.10
2019-03-11T19:50:30.442Z,43.70
2019-03-11T19:53:01.429Z,43.80
2019-03-11T19:55:35.540Z,43.60
2019-03-11T19:58:26.182Z,43.50
2019-03-11T20:00:58.090Z,43.80
2019-03-11T20:03:33.399Z,43.60
2019-03-11T20:06:06.149Z,43.30
2019-03-11T20:08:52.919Z,43.30
2019-03-11T20:11:29.402Z,43.40
2019-03-11T20:14:04.633Z,43.20
2019-03-11T20:16:37.363Z,43.40
2019-03-11T20:19:08.253Z,43.20
2019-03-11T20:21:38.992Z,43.20
2019-03-11T20:24:10.012Z,43.20
2019-03-11T20:26:40.669Z,43.10
2019-03-11T20:29:11.660Z,42.80
2019-03-11T20:31:42.360Z,42.70
2019-03-11T20:34:13.345Z,42.80
2019-03-11T20:36:44.213Z,42.70
2019-03-11T20:39:15.336Z,42.80
2019-03-11T20:41:46.338Z,42.60
2019-03-11T20:44:17.048Z,42.50
2019-03-11T20:46:47.541Z,42.30
2019-03-11T20:49:18.347Z,42.50
2019-03-11T20:51:49.192Z,42.30
2019-03-11T20:54:19.650Z,42.30
2019-03-11T20:56:50.272Z,42.40
2019-03-11T20:59:21.484Z,42.10
2019-03-11T21:01:52.498Z,42.20
2019-03-11T21:04:23.249Z,42.20
2019-03-11T21:06:54.254Z,42.00
2019-03-11T21:09:25.107Z,42.10
2019-03-11T21:11:55.711Z,42.00
2019-03-11T21:14:26.798Z,42.60
2019-03-11T21:16:58.587Z,42.00
2019-03-11T21:19:29.779Z,41.70
2019-03-11T21:22:00.410Z,41.50
2019-03-11T21:24:34.214Z,41.60
2019-03-11T21:27:17.346Z,41.50
2019-03-11T21:29:50.373Z,41.30
2019-03-11T21:32:30.514Z,41.50
2019-03-11T21:35:03.971Z,41.60
2019-03-11T21:37:37.187Z,42.00
2019-03-11T21:40:10.044Z,41.30
2019-03-11T21:42:41.887Z,41.50
2019-03-11T21:45:15.802Z,41.50
2019-03-11T21:47:52.092Z,41.50
2019-03-11T21:50:23.480Z,41.40
2019-03-11T21:52:59.847Z,41.10
2019-03-11T21:55:33.951Z,41.00
2019-03-11T21:58:13.091Z,41.10
2019-03-11T22:00:42.496Z,41.00
2019-03-11T22:03:16.325Z,41.10
2019-03-11T22:05:47.554Z,41.10
2019-03-11T22:08:18.997Z,40.80
2019-03-11T22:10:52.217Z,40.70
2019-03-11T22:13:24.087Z,41.10
2019-03-11T22:15:58.168Z,41.10
2019-03-11T22:18:35.263Z,40.80
2019-03-11T22:21:06.010Z,40.80
2019-03-11T22:23:36.939Z,41.30
2019-03-11T22:26:07.793Z,40.90
2019-03-11T22:28:38.741Z,41.00
2019-03-11T22:31:09.601Z,41.10
2019-03-11T22:33:40.405Z,40.90
2019-03-11T22:36:11.081Z,41.60
2019-03-11T22:38:42.191Z,41.10
2019-03-11T22:41:13.228Z,41.10
2019-03-11T22:43:43.906Z,41.00
2019-03-11T22:46:16.016Z,40.80
2019-03-11T22:48:47.170Z,40.90
2019-03-11T22:51:17.967Z,41.00
2019-03-11T22:53:51.594Z,41.10
2019-03-11T22:56:21.082Z,41.00
2019-03-11T22:58:52.175Z,41.20
2019-03-11T23:01:22.892Z,41.20
2019-03-11T23:03:55.456Z,41.40
2019-03-11T23:06:26.486Z,41.50
2019-03-11T23:08:58.420Z,41.60
2019-03-11T23:11:29.410Z,41.40
2019-03-11T23:14:00.382Z,41.80
2019-03-11T23:16:31.038Z,41.70
2019-03-11T23:19:01.752Z,41.80
2019-03-11T23:21:32.619Z,41.50
2019-03-11T23:24:03.487Z,41.70
2019-03-11T23:26:34.454Z,41.60
2019-03-11T23:29:05.241Z,41.60
2019-03-11T23:31:36.078Z,41.50
2019-03-11T23:34:07.114Z,41.60
2019-03-11T23:36:37.706Z,41.60
2019-03-11T23:39:08.897Z,41.60
2019-03-11T23:41:41.577Z,41.70
2019-03-11T23:44:12.281Z,41.90
2019-03-11T23:46:42.734Z,41.60
2019-03-11T23:49:13.798Z,42.00
2019-03-11T23:51:44.517Z,41.70
2019-03-11T23:54:15.446Z,41.80
2019-03-11T23:56:47.104Z,41.70
2019-03-11T23:59:17.670Z,42.30
